createdAt,value
2018-09-19T00:00:24.199Z,15.07
2018-09-19T00:02:52.662Z,15.00
2018-09-19T00:05:21.151Z,15.50
2018-09-19T00:07:49.623Z,16.73
2018-09-19T00:10:18.102Z,14.20
2018-09-19T00:12:46.570Z,13.93
2018-09-19T00:15:15.036Z,12.63
2018-09-19T00:17:43.546Z,15.50
2018-09-19T00:20:12.046Z,16.30
2018-09-19T00:22:40.506Z,14.40
2018-09-19T00:25:08.978Z,14.63
2018-09-19T00:27:37.453Z,22.20
2018-09-19T00:30:05.974Z,14.07
2018-09-19T00:32:34.451Z,20.10
2018-09-19T00:35:02.942Z,16.27
2018-09-19T00:37:31.418Z,17.10
2018-09-19T00:39:59.886Z,16.57
2018-09-19T00:42:28.372Z,16.50
2018-09-19T00:44:56.845Z,15.13
2018-09-19T00:47:25.363Z,14.27
2018-09-19T00:49:53.850Z,15.27
2018-09-19T00:52:22.314Z,18.13
2018-09-19T00:54:50.783Z,17.50
2018-09-19T00:57:19.251Z,17.10
2018-09-19T00:59:47.731Z,16.50
2018-09-19T01:02:16.258Z,14.90
2018-09-19T01:04:44.703Z,14.63
2018-09-19T01:07:13.174Z,16.53
2018-09-19T01:09:41.644Z,15.37
2018-09-19T01:12:10.110Z,15.03
2018-09-19T01:14:38.594Z,20.67
2018-09-19T01:17:07.071Z,16.57
2018-09-19T01:19:35.654Z,14.80
2018-09-19T01:22:04.144Z,14.27
2018-09-19T01:24:32.651Z,14.13
2018-09-19T01:27:01.118Z,26.37
2018-09-19T01:29:29.617Z,15.20
2018-09-19T01:31:58.078Z,15.87
2018-09-19T01:34:26.550Z,14.37
2018-09-19T01:36:55.010Z,15.70
2018-09-19T01:39:23.475Z,17.23
2018-09-19T01:41:51.946Z,14.60
2018-09-19T01:44:20.429Z,16.73
2018-09-19T01:46:48.962Z,16.27
2018-09-19T01:49:17.447Z,16.77
2018-09-19T01:51:45.971Z,16.63
2018-09-19T01:54:14.527Z,16.10
2018-09-19T01:56:42.994Z,17.43
2018-09-19T01:59:11.467Z,17.80
2018-09-19T02:01:39.942Z,16.00
2018-09-19T02:04:08.431Z,16.80
2018-09-19T02:06:36.928Z,16.77
2018-09-19T02:09:08.529Z,17.90
2018-09-19T02:11:37.003Z,22.90
2018-09-19T02:14:05.497Z,18.17
2018-09-19T02:16:34.015Z,13.10
2018-09-19T02:19:02.476Z,14.90
2018-09-19T02:21:30.963Z,22.70
2018-09-19T02:23:59.430Z,15.70
2018-09-19T02:26:27.949Z,15.83
2018-09-19T02:28:56.478Z,18.53
2018-09-19T02:31:24.971Z,15.77
2018-09-19T02:33:53.853Z,16.37
2018-09-19T02:36:24.271Z,15.80
2018-09-19T02:38:54.378Z,16.07
2018-09-19T02:41:22.892Z,19.00
2018-09-19T02:43:51.982Z,20.03
2018-09-19T02:46:20.487Z,17.13
2018-09-19T02:48:49.559Z,17.17
2018-09-19T02:51:18.531Z,18.87
2018-09-19T02:53:48.135Z,19.20
2018-09-19T02:56:16.649Z,20.53
2018-09-19T02:58:45.148Z,18.30
2018-09-19T03:01:13.625Z,17.30
2018-09-19T03:03:42.107Z,20.80
2018-09-19T03:06:10.582Z,17.90
2018-09-19T03:08:39.057Z,16.73
2018-09-19T03:11:07.607Z,17.97
2018-09-19T03:13:36.080Z,15.73
2018-09-19T03:16:04.533Z,15.97
2018-09-19T03:18:33.060Z,17.97
2018-09-19T03:21:01.566Z,15.60
2018-09-19T03:23:30.067Z,16.67
2018-09-19T03:25:58.520Z,16.20
2018-09-19T03:28:26.994Z,16.23
2018-09-19T03:30:55.489Z,22.60
2018-09-19T03:33:24.023Z,18.53
2018-09-19T03:35:52.512Z,21.20
2018-09-19T03:38:21.002Z,18.53
2018-09-19T03:40:49.475Z,23.53
2018-09-19T03:43:17.947Z,17.60
2018-09-19T03:45:46.422Z,16.70
2018-09-19T03:48:14.900Z,16.60
2018-09-19T03:50:43.469Z,18.47
2018-09-19T03:53:14.069Z,15.93
2018-09-19T03:55:42.552Z,17.43
2018-09-19T03:58:11.125Z,20.40
2018-09-19T04:00:39.614Z,16.30
2018-09-19T04:03:08.096Z,17.03
2018-09-19T04:05:36.579Z,19.00
2018-09-19T04:08:05.078Z,18.00
2018-09-19T04:10:33.643Z,17.67
2018-09-19T04:13:02.167Z,23.97
2018-09-19T04:15:30.670Z,17.23
2018-09-19T04:17:59.226Z,24.80
2018-09-19T04:20:27.641Z,16.90
2018-09-19T04:22:56.123Z,18.33
2018-09-19T04:25:24.596Z,18.97
2018-09-19T04:27:53.102Z,18.00
2018-09-19T04:30:21.592Z,17.00
2018-09-19T04:32:50.092Z,17.20
2018-09-19T04:35:18.553Z,17.50
2018-09-19T04:37:47.073Z,18.27
2018-09-19T04:40:15.598Z,20.83
2018-09-19T04:42:44.096Z,21.50
2018-09-19T04:45:12.652Z,28.13
2018-09-19T04:47:41.046Z,49.83
2018-09-19T04:50:09.667Z,41.10
2018-09-19T04:52:38.135Z,30.27
2018-09-19T04:55:06.782Z,31.43
2018-09-19T04:57:35.241Z,20.90
2018-09-19T05:00:04.071Z,26.67
2018-09-19T05:02:32.611Z,29.13
2018-09-19T05:05:01.094Z,24.67
2018-09-19T05:07:29.548Z,27.03
2018-09-19T05:09:58.068Z,18.60
2018-09-19T05:12:26.570Z,20.63
2018-09-19T05:14:55.056Z,25.10
2018-09-19T05:17:23.529Z,26.03
2018-09-19T05:19:52.040Z,22.40
2018-09-19T05:22:20.526Z,20.27
2018-09-19T05:24:49.002Z,25.03
2018-09-19T05:27:17.519Z,17.93
2018-09-19T05:29:46.599Z,17.00
2018-09-19T05:32:15.110Z,17.30
2018-09-19T05:34:43.582Z,16.73
2018-09-19T05:37:12.054Z,22.70
2018-09-19T05:39:40.551Z,20.20
2018-09-19T05:42:09.046Z,18.40
2018-09-19T05:44:37.542Z,14.67
2018-09-19T05:47:06.033Z,17.03
2018-09-19T05:49:35.343Z,16.73
2018-09-19T05:52:03.834Z,14.60
2018-09-19T05:54:32.421Z,16.17
2018-09-19T05:57:00.843Z,20.70
2018-09-19T05:59:29.338Z,16.03
2018-09-19T06:01:57.855Z,13.90
2018-09-19T06:04:26.323Z,15.07
2018-09-19T06:06:54.824Z,13.57
2018-09-19T06:09:23.290Z,14.10
2018-09-19T06:11:51.760Z,13.70
2018-09-19T06:14:20.234Z,21.73
2018-09-19T06:16:48.769Z,14.23
2018-09-19T06:19:17.281Z,13.60
2018-09-19T06:21:45.758Z,15.37
2018-09-19T06:24:14.262Z,14.73
2018-09-19T06:26:42.744Z,14.23
2018-09-19T06:29:11.216Z,13.10
2018-09-19T06:31:39.678Z,14.33
2018-09-19T06:34:08.231Z,11.27
2018-09-19T06:36:36.706Z,13.40
2018-09-19T06:39:06.263Z,14.03
2018-09-19T06:41:34.787Z,15.20
2018-09-19T06:44:03.248Z,12.27
2018-09-19T06:46:31.786Z,18.23
2018-09-19T06:49:00.339Z,16.27
2018-09-19T06:51:28.810Z,13.00
2018-09-19T06:53:57.584Z,12.50
2018-09-19T06:56:26.434Z,15.27
2018-09-19T06:58:54.917Z,17.50
2018-09-19T07:01:23.478Z,12.63
2018-09-19T07:03:52.078Z,15.50
2018-09-19T07:06:20.647Z,16.00
2018-09-19T07:08:49.122Z,16.73
2018-09-19T07:11:17.587Z,12.57
2018-09-19T07:13:46.252Z,13.90
2018-09-19T07:16:14.738Z,13.20
2018-09-19T07:18:43.267Z,10.93
2018-09-19T07:21:11.760Z,13.90
2018-09-19T07:23:40.244Z,11.27
2018-09-19T07:26:08.730Z,12.00
2018-09-19T07:28:37.209Z,12.87
2018-09-19T07:31:05.741Z,10.93
2018-09-19T07:33:34.487Z,15.37
2018-09-19T07:36:02.986Z,11.83
2018-09-19T07:38:31.486Z,13.40
2018-09-19T07:40:59.952Z,13.40
2018-09-19T07:43:28.418Z,13.27
2018-09-19T07:45:56.902Z,12.07
2018-09-19T07:48:25.362Z,16.87
2018-09-19T07:50:53.840Z,14.00
2018-09-19T07:53:22.357Z,14.80
2018-09-19T07:55:50.842Z,13.00
2018-09-19T07:58:19.321Z,14.30
2018-09-19T08:00:47.936Z,13.30
2018-09-19T08:03:16.281Z,13.03
2018-09-19T08:05:44.762Z,14.30
2018-09-19T08:08:13.254Z,10.90
2018-09-19T08:10:41.727Z,12.90
2018-09-19T08:13:10.211Z,13.43
2018-09-19T08:15:38.686Z,11.00
2018-09-19T08:18:07.206Z,11.17
2018-09-19T08:20:35.705Z,9.53
2018-09-19T08:23:04.197Z,14.00
2018-09-19T08:25:32.690Z,14.83
2018-09-19T08:28:01.495Z,16.33
2018-09-19T08:30:30.079Z,17.27
2018-09-19T08:32:58.599Z,14.70
2018-09-19T08:35:27.079Z,20.43
2018-09-19T08:37:55.575Z,17.23
2018-09-19T08:40:24.082Z,14.43
2018-09-19T08:42:52.561Z,12.20
2018-09-19T08:45:21.030Z,21.73
2018-09-19T08:47:49.512Z,19.97
2018-09-19T08:50:17.989Z,12.27
2018-09-19T08:52:46.499Z,12.93
2018-09-19T08:55:14.995Z,20.23
2018-09-19T08:57:43.454Z,12.53
2018-09-19T09:00:12.039Z,11.50
2018-09-19T09:02:40.513Z,13.63
2018-09-19T09:05:09.089Z,14.10
2018-09-19T09:07:37.562Z,12.40
2018-09-19T09:10:06.067Z,12.90
2018-09-19T09:12:34.580Z,9.90
2018-09-19T09:15:03.356Z,10.33
2018-09-19T09:17:31.889Z,12.37
2018-09-19T09:20:00.404Z,10.63
2018-09-19T09:22:28.875Z,11.80
2018-09-19T09:24:57.362Z,10.20
2018-09-19T09:27:25.922Z,11.40
2018-09-19T09:29:54.332Z,10.33
2018-09-19T09:32:22.799Z,10.97
2018-09-19T09:34:51.253Z,9.03
2018-09-19T09:37:19.740Z,15.90
2018-09-19T09:39:48.209Z,12.17
2018-09-19T09:42:16.683Z,8.77
2018-09-19T09:44:45.153Z,10.07
2018-09-19T09:47:13.636Z,8.87
2018-09-19T09:49:42.096Z,10.50
2018-09-19T09:52:10.603Z,9.23
2018-09-19T09:54:39.086Z,8.87
2018-09-19T09:57:07.571Z,10.23
2018-09-19T09:59:36.060Z,10.20
2018-09-19T10:02:04.517Z,8.87
2018-09-19T10:04:33.011Z,9.30
2018-09-19T10:07:01.479Z,9.33
2018-09-19T10:09:30.001Z,10.70
2018-09-19T10:11:58.480Z,9.43
2018-09-19T10:14:26.956Z,8.60
2018-09-19T10:16:55.431Z,9.70
2018-09-19T10:19:23.916Z,9.67
2018-09-19T10:21:52.390Z,10.90
2018-09-19T10:24:20.871Z,10.90
2018-09-19T10:26:49.346Z,11.30
2018-09-19T10:29:17.940Z,10.43
2018-09-19T10:31:46.418Z,9.90
2018-09-19T10:34:14.903Z,9.37
2018-09-19T10:36:43.375Z,9.03
2018-09-19T10:39:11.876Z,9.00
2018-09-19T10:41:40.342Z,9.80
2018-09-19T10:44:08.835Z,18.13
2018-09-19T10:46:37.299Z,10.63
2018-09-19T10:49:05.774Z,11.30
2018-09-19T10:51:34.231Z,8.43
2018-09-19T10:54:02.715Z,10.57
2018-09-19T10:56:31.250Z,13.10
2018-09-19T10:58:59.730Z,8.73
2018-09-19T11:01:28.190Z,8.93
2018-09-19T11:03:56.712Z,12.17
2018-09-19T11:06:25.166Z,9.23
2018-09-19T11:08:53.637Z,14.67
2018-09-19T11:11:22.112Z,8.70
2018-09-19T11:13:50.592Z,11.83
2018-09-19T11:16:19.071Z,11.93
2018-09-19T11:18:47.578Z,10.50
2018-09-19T11:21:16.089Z,7.67
2018-09-19T11:23:44.562Z,9.57
2018-09-19T11:26:13.023Z,8.70
2018-09-19T11:28:41.570Z,8.80
2018-09-19T11:31:10.106Z,10.90
2018-09-19T11:33:38.681Z,9.23
2018-09-19T11:36:07.195Z,8.90
2018-09-19T11:38:35.694Z,8.43
2018-09-19T11:41:04.246Z,11.03
2018-09-19T11:43:32.771Z,10.00
2018-09-19T11:46:01.288Z,8.77
2018-09-19T11:48:29.806Z,10.43
2018-09-19T11:50:58.552Z,11.10
2018-09-19T11:53:27.954Z,9.23
2018-09-19T11:55:57.766Z,9.80
2018-09-19T11:58:26.584Z,11.00
2018-09-19T12:00:55.056Z,9.27
2018-09-19T12:03:23.530Z,8.80
2018-09-19T12:05:52.000Z,8.83
2018-09-19T12:08:20.984Z,9.23
2018-09-19T12:10:49.481Z,10.50
2018-09-19T12:13:18.048Z,12.90
2018-09-19T12:15:46.527Z,10.17
2018-09-19T12:18:15.003Z,9.03
2018-09-19T12:20:43.487Z,9.50
2018-09-19T12:23:11.986Z,12.23
2018-09-19T12:25:40.445Z,9.63
2018-09-19T12:28:09.249Z,8.80
2018-09-19T12:30:37.730Z,10.20
2018-09-19T12:33:06.278Z,9.07
2018-09-19T12:35:34.759Z,10.30
2018-09-19T12:38:03.267Z,9.23
2018-09-19T12:40:31.759Z,11.53
2018-09-19T12:43:00.286Z,10.10
2018-09-19T12:45:28.846Z,9.33
2018-09-19T12:47:57.314Z,10.13
2018-09-19T12:50:25.770Z,12.57
2018-09-19T12:52:54.306Z,11.07
2018-09-19T12:55:22.828Z,10.07
2018-09-19T12:57:51.313Z,10.90
2018-09-19T13:00:19.836Z,11.87
2018-09-19T13:02:48.466Z,11.47
2018-09-19T13:05:16.948Z,13.00
2018-09-19T13:07:45.422Z,13.30
2018-09-19T13:10:13.939Z,11.37
2018-09-19T13:12:42.411Z,10.17
2018-09-19T13:15:11.030Z,10.40
2018-09-19T13:17:39.483Z,10.20
2018-09-19T13:20:07.972Z,10.43
2018-09-19T13:22:36.489Z,11.13
2018-09-19T13:25:05.354Z,11.23
2018-09-19T13:27:33.811Z,12.67
2018-09-19T13:30:02.299Z,10.27
2018-09-19T13:32:30.787Z,10.20
2018-09-19T13:34:59.252Z,10.67
2018-09-19T13:37:27.716Z,9.80
2018-09-19T13:39:56.239Z,9.77
2018-09-19T13:42:24.725Z,11.13
2018-09-19T13:44:53.214Z,11.10
2018-09-19T13:47:21.683Z,9.87
2018-09-19T13:49:53.178Z,9.47
2018-09-19T13:52:21.664Z,10.57
2018-09-19T13:54:50.158Z,11.00
2018-09-19T13:57:18.647Z,10.53
2018-09-19T13:59:47.119Z,10.40
2018-09-19T14:02:15.587Z,9.53
2018-09-19T14:04:44.044Z,9.33
2018-09-19T14:07:12.510Z,11.07
2018-09-19T14:09:40.970Z,10.10
2018-09-19T14:12:09.521Z,16.93
2018-09-19T14:14:37.947Z,12.70
2018-09-19T14:17:06.861Z,12.90
2018-09-19T14:19:35.331Z,10.13
2018-09-19T14:22:03.815Z,13.27
2018-09-19T14:24:32.347Z,10.63
2018-09-19T14:27:00.828Z,10.43
2018-09-19T14:29:29.355Z,10.73
2018-09-19T14:31:57.840Z,11.23
2018-09-19T14:34:26.316Z,11.33
2018-09-19T14:36:54.795Z,10.80
2018-09-19T14:39:23.284Z,10.40
2018-09-19T14:41:51.735Z,11.00
2018-09-19T14:44:20.251Z,10.83
2018-09-19T14:46:48.740Z,17.73
2018-09-19T14:49:17.292Z,11.23
2018-09-19T14:51:45.770Z,11.97
2018-09-19T14:54:14.436Z,13.00
2018-09-19T14:56:42.864Z,12.17
2018-09-19T14:59:11.358Z,13.10
2018-09-19T15:01:39.890Z,12.77
2018-09-19T15:04:08.396Z,12.60
2018-09-19T15:06:36.907Z,11.57
2018-09-19T15:09:08.825Z,12.00
2018-09-19T15:11:37.431Z,11.47
2018-09-19T15:14:06.087Z,11.60
2018-09-19T15:16:34.608Z,12.00
2018-09-19T15:19:03.249Z,14.90
2018-09-19T15:21:31.799Z,12.80
2018-09-19T15:24:00.461Z,12.77
2018-09-19T15:26:28.951Z,10.70
2018-09-19T15:28:58.069Z,14.83
2018-09-19T15:31:26.638Z,11.80
2018-09-19T15:33:55.116Z,11.03
2018-09-19T15:36:23.714Z,13.20
2018-09-19T15:38:52.199Z,12.10
2018-09-19T15:41:20.710Z,15.80
2018-09-19T15:43:49.214Z,12.60
2018-09-19T15:46:17.698Z,12.70
2018-09-19T15:48:46.362Z,15.03
2018-09-19T15:51:14.819Z,12.87
2018-09-19T15:53:43.343Z,12.80
2018-09-19T15:56:11.855Z,13.47
2018-09-19T15:58:40.328Z,12.20
2018-09-19T16:01:08.839Z,12.00
2018-09-19T16:03:37.375Z,13.70
2018-09-19T16:06:05.892Z,13.63
2018-09-19T16:08:34.359Z,12.97
2018-09-19T16:11:02.854Z,13.70
2018-09-19T16:13:31.422Z,12.70
2018-09-19T16:15:59.910Z,13.03
2018-09-19T16:18:28.391Z,15.53
2018-09-19T16:20:56.895Z,13.13
2018-09-19T16:23:25.374Z,12.73
2018-09-19T16:25:53.859Z,19.33
2018-09-19T16:28:22.378Z,13.57
2018-09-19T16:30:50.931Z,13.27
2018-09-19T16:33:19.415Z,14.57
2018-09-19T16:35:47.906Z,15.27
2018-09-19T16:38:16.395Z,14.13
2018-09-19T16:40:44.887Z,12.93
2018-09-19T16:43:13.386Z,12.87
2018-09-19T16:45:41.877Z,12.93
2018-09-19T16:48:10.351Z,14.60
2018-09-19T16:50:38.839Z,16.53
2018-09-19T16:53:07.425Z,11.43
2018-09-19T16:55:35.821Z,10.73
2018-09-19T16:58:04.367Z,19.73
2018-09-19T17:00:32.988Z,12.17
2018-09-19T17:03:01.470Z,9.80
2018-09-19T17:05:29.955Z,10.13
2018-09-19T17:07:59.158Z,9.23
2018-09-19T17:10:27.631Z,11.03
2018-09-19T17:12:56.106Z,10.20
2018-09-19T17:15:24.593Z,18.37
2018-09-19T17:17:53.103Z,12.80
2018-09-19T17:20:21.619Z,14.73
2018-09-19T17:22:50.101Z,22.47
2018-09-19T17:25:18.632Z,17.30
2018-09-19T17:27:47.099Z,15.33
2018-09-19T17:30:15.719Z,15.27
2018-09-19T17:32:44.217Z,21.43
2018-09-19T17:35:12.770Z,14.70
2018-09-19T17:37:41.330Z,13.83
2018-09-19T17:40:09.931Z,13.47
2018-09-19T17:42:38.434Z,13.57
2018-09-19T17:45:07.570Z,14.30
2018-09-19T17:47:36.103Z,18.03
2018-09-19T17:50:05.428Z,17.67
2018-09-19T17:52:33.914Z,12.50
2018-09-19T17:55:02.602Z,13.87
2018-09-19T17:57:31.199Z,13.07
2018-09-19T17:59:59.694Z,13.70
2018-09-19T18:02:28.189Z,14.00
2018-09-19T18:04:56.904Z,13.90
2018-09-19T18:07:25.475Z,16.93
2018-09-19T18:09:54.002Z,13.63
2018-09-19T18:12:22.595Z,14.07
2018-09-19T18:14:51.253Z,13.03
2018-09-19T18:17:19.748Z,15.53
2018-09-19T18:19:48.266Z,13.40
2018-09-19T18:22:16.790Z,14.30
2018-09-19T18:24:45.322Z,13.77
2018-09-19T18:27:13.889Z,13.50
2018-09-19T18:29:43.251Z,15.30
2018-09-19T18:32:11.740Z,14.73
2018-09-19T18:34:40.219Z,21.00
2018-09-19T18:37:08.779Z,17.47
2018-09-19T18:39:37.250Z,21.87
2018-09-19T18:42:05.743Z,30.70
2018-09-19T18:44:34.243Z,16.10
2018-09-19T18:47:02.807Z,16.60
2018-09-19T18:49:31.290Z,17.10
2018-09-19T18:51:59.812Z,20.13
2018-09-19T18:54:28.331Z,17.97
2018-09-19T18:56:56.830Z,17.77
2018-09-19T18:59:25.396Z,15.00
2018-09-19T19:01:53.870Z,15.40
2018-09-19T19:04:22.346Z,15.33
2018-09-19T19:06:50.839Z,14.57
2018-09-19T19:09:19.318Z,19.23
2018-09-19T19:11:47.788Z,19.83
2018-09-19T19:14:16.255Z,15.20
2018-09-19T19:16:44.727Z,16.83
2018-09-19T19:19:13.203Z,20.10
2018-09-19T19:21:41.700Z,15.77
2018-09-19T19:24:10.194Z,18.00
2018-09-19T19:26:38.671Z,16.20
2018-09-19T19:29:07.290Z,16.77
2018-09-19T19:31:35.759Z,17.13
2018-09-19T19:34:04.266Z,16.40
2018-09-19T19:36:33.031Z,17.70
2018-09-19T19:39:01.530Z,16.20
2018-09-19T19:41:30.019Z,17.33
2018-09-19T19:43:58.487Z,21.60
2018-09-19T19:46:27.027Z,14.80
2018-09-19T19:48:55.492Z,17.10
2018-09-19T19:51:23.954Z,15.60
2018-09-19T19:53:52.419Z,23.40
2018-09-19T19:56:20.972Z,15.23
2018-09-19T19:58:49.451Z,15.43
2018-09-19T20:01:17.931Z,16.40
2018-09-19T20:03:46.665Z,16.13
2018-09-19T20:06:15.132Z,18.07
2018-09-19T20:08:43.598Z,19.30
2018-09-19T20:11:12.076Z,20.00
2018-09-19T20:13:40.547Z,18.57
2018-09-19T20:16:09.000Z,18.03
2018-09-19T20:18:37.582Z,18.40
2018-09-19T20:21:06.079Z,22.27
2018-09-19T20:23:34.562Z,19.87
2018-09-19T20:26:03.050Z,18.50
2018-09-19T20:28:31.516Z,25.40
2018-09-19T20:30:59.999Z,18.37
2018-09-19T20:33:28.471Z,20.33
2018-09-19T20:35:57.038Z,17.40
2018-09-19T20:38:25.582Z,17.00
2018-09-19T20:40:54.055Z,19.07
2018-09-19T20:43:22.527Z,21.23
2018-09-19T20:45:51.027Z,18.93
2018-09-19T20:48:19.491Z,19.57
2018-09-19T20:50:47.961Z,19.57
2018-09-19T20:53:16.443Z,20.00
2018-09-19T20:55:44.937Z,29.47
2018-09-19T20:58:13.403Z,18.30
2018-09-19T21:00:41.871Z,18.00
2018-09-19T21:03:10.362Z,18.87
2018-09-19T21:05:38.855Z,18.03
2018-09-19T21:08:07.351Z,19.00
2018-09-19T21:10:35.827Z,21.30
2018-09-19T21:13:04.334Z,17.90
2018-09-19T21:15:32.932Z,18.27
2018-09-19T21:18:01.391Z,32.57
2018-09-19T21:20:29.855Z,21.63
2018-09-19T21:22:58.327Z,22.27
2018-09-19T21:25:27.216Z,19.70
2018-09-19T21:27:55.679Z,20.63
2018-09-19T21:30:24.166Z,21.07
2018-09-19T21:32:52.634Z,21.90
2018-09-19T21:35:21.102Z,22.23
2018-09-19T21:37:49.571Z,23.83
2018-09-19T21:40:18.065Z,24.90
2018-09-19T21:42:46.539Z,19.20
2018-09-19T21:45:15.005Z,18.80
2018-09-19T21:47:43.472Z,19.30
2018-09-19T21:50:11.952Z,16.97
2018-09-19T21:52:40.427Z,18.80
2018-09-19T21:55:08.923Z,19.13
2018-09-19T21:57:37.391Z,18.43
2018-09-19T22:00:07.238Z,16.67
2018-09-19T22:02:35.727Z,18.23
2018-09-19T22:05:04.297Z,22.73
2018-09-19T22:07:32.846Z,19.40
2018-09-19T22:10:01.335Z,19.30
2018-09-19T22:12:29.809Z,22.80
2018-09-19T22:14:58.335Z,20.20
2018-09-19T22:17:26.799Z,19.37
2018-09-19T22:19:55.284Z,19.23
2018-09-19T22:22:23.763Z,19.60
2018-09-19T22:24:52.258Z,24.37
2018-09-19T22:27:20.733Z,18.10
2018-09-19T22:29:49.215Z,18.60
2018-09-19T22:32:17.691Z,17.13
2018-09-19T22:34:46.174Z,16.90
2018-09-19T22:37:14.723Z,21.60
2018-09-19T22:39:43.220Z,17.23
2018-09-19T22:42:11.738Z,16.80
2018-09-19T22:44:40.195Z,15.90
2018-09-19T22:47:08.675Z,20.37
2018-09-19T22:49:37.143Z,23.97
2018-09-19T22:52:05.639Z,21.03
2018-09-19T22:54:34.126Z,22.77
2018-09-19T22:57:02.599Z,18.10
2018-09-19T22:59:31.150Z,18.30
2018-09-19T23:01:59.679Z,17.47
2018-09-19T23:04:28.123Z,20.53
2018-09-19T23:06:56.597Z,18.57
2018-09-19T23:09:25.094Z,16.40
2018-09-19T23:11:53.575Z,17.23
2018-09-19T23:14:22.051Z,18.63
2018-09-19T23:16:50.548Z,27.20
2018-09-19T23:19:19.018Z,19.97
2018-09-19T23:21:47.494Z,17.27
2018-09-19T23:24:15.979Z,17.20
2018-09-19T23:26:44.455Z,15.20
2018-09-19T23:29:12.931Z,17.00
2018-09-19T23:31:41.410Z,16.03
2018-09-19T23:34:09.879Z,15.83
2018-09-19T23:36:38.351Z,15.10
2018-09-19T23:39:08.210Z,15.50
2018-09-19T23:41:36.684Z,15.17
2018-09-19T23:44:05.275Z,14.47
2018-09-19T23:46:33.775Z,13.67
2018-09-19T23:49:02.394Z,13.00
2018-09-19T23:51:30.973Z,15.30
2018-09-19T23:53:59.439Z,15.17
2018-09-19T23:56:27.977Z,20.40
2018-09-19T23:58:56.446Z,21.07
